Terminal Aerodrome Forecast
Issued by NWS

Home | Current Version | Previous Version | Text Only | Print | Product List | Glossary On
Versions: 1 2 3 4 5 6 7 8 9 10 11 12 13 14 15 16 17 18 19 20 21 22 23 24 25 26 27 28
000
FTUS46 KOTX 071720
TAFCOE
TAF
KCOE 071720Z 0718/0818 02012G18KT P6SM SCT100 BKN200
     FM072200 03006KT P6SM VCTS SCT080CB BKN120
     FM080400 03007G18KT P6SM SCT200
     FM081200 05010KT P6SM FEW200
      AMD LTD TO CLD AND VIS=

USA.gov is the U.S. government's official web portal to all federal, state and local government web resources and services.